createdAt,value
2022-11-04T00:00:11.856Z,76.20
2022-11-04T00:02:38.598Z,76.30
2022-11-04T00:05:05.619Z,76.30
2022-11-04T00:07:50.859Z,76.40
2022-11-04T00:10:37.555Z,76.40
2022-11-04T00:13:04.305Z,76.10
2022-11-04T00:15:49.602Z,76.00
2022-11-04T00:18:16.322Z,75.80
2022-11-04T00:21:01.542Z,76.00
2022-11-04T00:23:46.793Z,76.20
2022-11-04T00:26:32.111Z,76.40
2022-11-04T00:28:58.803Z,76.30
2022-11-04T00:31:43.904Z,76.40
2022-11-04T00:34:10.746Z,76.30
2022-11-04T00:36:37.391Z,76.20
2022-11-04T00:39:04.056Z,76.10
2022-11-04T00:41:30.767Z,76.10
2022-11-04T00:44:05.187Z,76.00
2022-11-04T00:46:33.557Z,76.00
2022-11-04T00:49:00.290Z,75.80
2022-11-04T00:51:27.496Z,75.80
2022-11-04T00:53:54.656Z,75.80
2022-11-04T00:56:21.455Z,75.90
2022-11-04T00:58:49.872Z,75.90
2022-11-04T01:01:17.755Z,75.90
2022-11-04T01:03:45.601Z,75.80
2022-11-04T01:06:12.249Z,75.80
2022-11-04T01:08:39.252Z,75.90
2022-11-04T01:11:07.685Z,76.00
2022-11-04T01:13:35.262Z,76.00
2022-11-04T01:16:04.483Z,76.90
2022-11-04T01:18:31.148Z,76.00
2022-11-04T01:21:02.151Z,76.00
2022-11-04T01:23:29.035Z,75.80
2022-11-04T01:25:56.112Z,75.80
2022-11-04T01:28:22.988Z,75.80
2022-11-04T01:30:49.772Z,75.70
2022-11-04T01:33:16.501Z,75.50
2022-11-04T01:35:43.238Z,75.50
2022-11-04T01:38:10.232Z,75.50
2022-11-04T01:40:40.828Z,75.60
2022-11-04T01:43:19.526Z,76.50
2022-11-04T01:45:54.977Z,75.60
2022-11-04T01:48:28.360Z,76.40
2022-11-04T01:50:55.460Z,75.60
2022-11-04T01:53:43.351Z,75.50
2022-11-04T01:56:14.195Z,75.50
2022-11-04T01:58:47.169Z,75.50
2022-11-04T02:01:14.419Z,75.50
2022-11-04T02:03:51.774Z,75.50
2022-11-04T02:06:20.741Z,75.60
2022-11-04T02:08:48.027Z,75.40
2022-11-04T02:11:35.287Z,75.40
2022-11-04T02:14:02.622Z,75.30
2022-11-04T02:16:42.877Z,75.40
2022-11-04T02:19:55.164Z,75.40
2022-11-04T02:22:45.951Z,75.50
2022-11-04T02:25:43.765Z,75.60
2022-11-04T02:28:28.833Z,75.50
2022-11-04T02:31:14.723Z,75.50
2022-11-04T02:34:11.295Z,75.60
2022-11-04T02:36:48.228Z,75.50
2022-11-04T02:39:34.922Z,75.40
2022-11-04T02:42:13.007Z,75.50
2022-11-04T02:45:08.035Z,75.50
2022-11-04T02:47:40.024Z,75.50
2022-11-04T02:50:20.350Z,75.50
2022-11-04T02:52:52.893Z,75.60
2022-11-04T02:55:32.151Z,75.50
2022-11-04T02:58:01.780Z,75.60
2022-11-04T03:00:29.875Z,75.70
2022-11-04T03:03:01.640Z,75.70
2022-11-04T03:05:32.792Z,75.80
2022-11-04T03:08:04.463Z,75.70
2022-11-04T03:10:41.444Z,75.70
2022-11-04T03:13:19.137Z,75.60
2022-11-04T03:15:53.674Z,75.60
2022-11-04T03:18:29.593Z,75.60
2022-11-04T03:21:01.275Z,75.60
2022-11-04T03:23:28.529Z,75.70
2022-11-04T03:26:01.880Z,75.60
2022-11-04T03:28:44.420Z,75.90
2022-11-04T03:31:20.529Z,75.80
2022-11-04T03:33:53.856Z,76.00
2022-11-04T03:36:23.167Z,76.00
2022-11-04T03:38:51.300Z,76.00
2022-11-04T03:41:28.461Z,76.10
2022-11-04T03:43:55.122Z,76.00
2022-11-04T03:46:22.446Z,76.10
2022-11-04T03:48:52.537Z,76.00
2022-11-04T03:51:19.163Z,76.00
2022-11-04T03:53:45.872Z,75.90
2022-11-04T03:56:27.813Z,75.90
2022-11-04T03:59:06.750Z,76.00
2022-11-04T04:01:39.907Z,76.00
2022-11-04T04:04:25.456Z,76.00
2022-11-04T04:06:57.039Z,76.10
2022-11-04T04:09:29.958Z,76.10
2022-11-04T04:12:11.269Z,76.10
2022-11-04T04:14:46.562Z,76.10
2022-11-04T04:17:23.423Z,76.20
2022-11-04T04:20:14.686Z,76.20
2022-11-04T04:22:53.314Z,76.20
2022-11-04T04:25:42.058Z,76.20
2022-11-04T04:28:12.722Z,76.20
2022-11-04T04:30:42.243Z,76.20
2022-11-04T04:33:18.187Z,76.30
2022-11-04T04:35:52.998Z,76.30
2022-11-04T04:38:48.063Z,76.30
2022-11-04T04:41:40.328Z,76.40
2022-11-04T04:44:39.399Z,76.60
2022-11-04T04:47:08.651Z,76.60
2022-11-04T04:49:35.493Z,76.70
2022-11-04T04:52:04.264Z,76.80
2022-11-04T04:54:31.126Z,76.90
2022-11-04T04:56:57.923Z,76.90
2022-11-04T04:59:24.594Z,77.00
2022-11-04T05:01:51.328Z,77.10
2022-11-04T05:04:18.069Z,77.10
2022-11-04T05:06:44.959Z,77.00
2022-11-04T05:09:11.668Z,77.10
2022-11-04T05:11:38.429Z,77.10
2022-11-04T05:14:05.934Z,77.30
2022-11-04T05:16:36.605Z,77.30
2022-11-04T05:19:11.124Z,77.30
2022-11-04T05:21:49.078Z,77.20
2022-11-04T05:24:22.343Z,77.20
2022-11-04T05:26:49.796Z,77.10
2022-11-04T05:29:16.670Z,77.20
2022-11-04T05:31:43.513Z,77.10
2022-11-04T05:34:13.951Z,77.20
2022-11-04T05:36:41.066Z,77.20
2022-11-04T05:39:10.608Z,77.20
2022-11-04T05:41:37.440Z,77.30
2022-11-04T05:44:05.008Z,77.30
2022-11-04T05:46:32.260Z,77.50
2022-11-04T05:48:59.308Z,77.50
2022-11-04T05:51:28.105Z,77.50
2022-11-04T05:53:55.042Z,77.50
2022-11-04T05:56:21.916Z,77.60
2022-11-04T05:58:48.717Z,77.70
2022-11-04T06:01:31.897Z,77.70
2022-11-04T06:04:00.049Z,77.70
2022-11-04T06:06:32.482Z,77.60
2022-11-04T06:08:59.472Z,77.00
2022-11-04T06:11:28.324Z,77.60
2022-11-04T06:13:56.232Z,77.60
2022-11-04T06:16:23.786Z,77.70
2022-11-04T06:18:50.707Z,77.60
2022-11-04T06:21:18.948Z,77.70
2022-11-04T06:23:45.723Z,78.00
2022-11-04T06:26:13.032Z,77.90
2022-11-04T06:28:39.820Z,77.90
2022-11-04T06:31:08.983Z,78.00
2022-11-04T06:33:37.125Z,78.00
2022-11-04T06:36:06.585Z,78.00
2022-11-04T06:38:37.328Z,78.00
2022-11-04T06:43:33.072Z,78.00
2022-11-04T06:46:01.858Z,78.00
2022-11-04T06:48:30.643Z,78.20
2022-11-04T06:50:59.105Z,78.20
2022-11-04T06:53:26.846Z,78.20
2022-11-04T06:55:54.038Z,78.20
2022-11-04T06:58:20.890Z,78.20
2022-11-04T07:00:53.496Z,78.20
2022-11-04T07:03:21.775Z,78.20
2022-11-04T07:05:48.505Z,78.30
2022-11-04T07:08:15.472Z,78.20
2022-11-04T07:10:42.270Z,78.10
2022-11-04T07:13:09.055Z,78.20
2022-11-04T07:15:37.655Z,78.20
2022-11-04T07:18:04.430Z,78.30
2022-11-04T07:20:31.083Z,79.20
2022-11-04T07:22:57.818Z,78.40
2022-11-04T07:25:24.566Z,78.50
2022-11-04T07:27:51.373Z,78.60
2022-11-04T07:30:20.610Z,78.60
2022-11-04T07:32:47.449Z,78.60
2022-11-04T07:35:14.649Z,78.50
2022-11-04T07:37:41.576Z,78.60
2022-11-04T07:40:08.855Z,78.70
2022-11-04T07:42:35.685Z,78.80
2022-11-04T07:45:07.233Z,79.30
2022-11-04T07:47:33.950Z,78.80
2022-11-04T07:50:02.091Z,78.70
2022-11-04T07:52:32.063Z,78.90
2022-11-04T07:54:58.798Z,78.70
2022-11-04T07:57:25.845Z,78.80
2022-11-04T07:59:52.490Z,78.70
2022-11-04T08:02:24.778Z,78.70
2022-11-04T08:04:53.368Z,78.70
2022-11-04T08:07:20.404Z,78.70
2022-11-04T08:09:47.061Z,78.70
2022-11-04T08:12:14.008Z,78.70
2022-11-04T08:14:40.935Z,78.80
2022-11-04T08:17:07.847Z,78.70
2022-11-04T08:19:34.539Z,78.60
2022-11-04T08:22:01.224Z,78.50
2022-11-04T08:24:27.883Z,78.60
2022-11-04T08:26:54.634Z,78.50
2022-11-04T08:29:21.438Z,78.40
2022-11-04T08:31:48.168Z,78.50
2022-11-04T08:34:17.303Z,78.50
2022-11-04T08:36:44.533Z,78.50
2022-11-04T08:39:12.756Z,78.70
2022-11-04T08:41:41.882Z,78.70
2022-11-04T08:44:10.214Z,78.70
2022-11-04T08:46:39.546Z,78.70
2022-11-04T08:49:09.984Z,78.70
2022-11-04T08:51:43.627Z,78.70
2022-11-04T08:54:11.018Z,78.80
2022-11-04T08:56:39.506Z,78.80
2022-11-04T08:59:06.599Z,78.80
2022-11-04T09:01:36.276Z,78.60
2022-11-04T09:04:05.319Z,78.50
2022-11-04T09:06:41.360Z,78.50
2022-11-04T09:09:11.866Z,78.30
2022-11-04T09:11:41.228Z,78.30
2022-11-04T09:14:08.436Z,78.20
2022-11-04T09:16:37.317Z,78.10
2022-11-04T09:19:05.487Z,78.10
2022-11-04T09:21:32.146Z,78.10
2022-11-04T09:23:58.834Z,78.10
2022-11-04T09:26:26.005Z,78.20
2022-11-04T09:28:57.700Z,78.30
2022-11-04T09:31:25.719Z,78.40
2022-11-04T09:33:55.191Z,78.50
2022-11-04T09:36:22.473Z,78.60
2022-11-04T09:38:49.751Z,78.60
2022-11-04T09:41:42.409Z,78.50
2022-11-04T09:44:21.577Z,78.50
2022-11-04T09:46:50.024Z,78.50
2022-11-04T09:49:17.047Z,78.50
2022-11-04T09:51:55.701Z,78.70
2022-11-04T09:55:07.371Z,78.80
2022-11-04T09:57:34.447Z,78.90
2022-11-04T10:00:01.518Z,78.90
2022-11-04T10:02:31.085Z,78.90
2022-11-04T10:05:12.923Z,78.70
2022-11-04T10:07:45.540Z,78.60
2022-11-04T10:10:49.825Z,78.50
2022-11-04T10:13:58.330Z,78.40
2022-11-04T10:16:42.181Z,78.30
2022-11-04T10:19:18.204Z,78.30
2022-11-04T10:21:53.845Z,78.20
2022-11-04T10:24:31.747Z,78.30
2022-11-04T10:27:10.472Z,78.40
2022-11-04T10:29:43.069Z,78.50
2022-11-04T10:32:37.004Z,78.50
2022-11-04T10:35:12.965Z,78.50
2022-11-04T10:37:39.663Z,78.50
2022-11-04T10:40:26.907Z,78.40
2022-11-04T10:42:53.690Z,78.40
2022-11-04T10:45:26.164Z,78.30
2022-11-04T10:48:13.911Z,78.50
2022-11-04T10:50:56.419Z,78.30
2022-11-04T10:53:26.232Z,78.30
2022-11-04T10:56:07.093Z,78.30
2022-11-04T10:58:44.291Z,78.00
2022-11-04T11:01:30.588Z,78.10
2022-11-04T11:03:58.759Z,78.20
2022-11-04T11:06:34.016Z,78.30
2022-11-04T11:09:28.409Z,78.30
2022-11-04T11:12:01.373Z,78.20
2022-11-04T11:14:28.036Z,78.20
2022-11-04T11:17:19.436Z,78.10
2022-11-04T11:19:54.933Z,78.00
2022-11-04T11:22:40.668Z,78.20
2022-11-04T11:25:19.624Z,78.10
2022-11-04T11:28:01.134Z,78.20
2022-11-04T11:30:29.608Z,78.10
2022-11-04T11:32:59.699Z,78.10
2022-11-04T11:35:33.995Z,77.90
2022-11-04T11:38:08.405Z,77.80
2022-11-04T11:40:57.313Z,77.80
2022-11-04T11:43:33.341Z,77.80
2022-11-04T11:46:01.133Z,77.70
2022-11-04T11:48:42.820Z,77.60
2022-11-04T11:51:13.499Z,77.50
2022-11-04T11:53:57.094Z,77.50
2022-11-04T11:56:45.865Z,77.60
2022-11-04T12:03:02.540Z,77.60
2022-11-04T12:11:49.429Z,77.50
2022-11-04T12:14:24.842Z,77.60
2022-11-04T12:17:33.127Z,77.60
2022-11-04T12:20:18.750Z,77.40
2022-11-04T12:22:59.115Z,77.60
2022-11-04T12:25:36.510Z,77.10
2022-11-04T12:28:06.153Z,76.50
2022-11-04T12:30:45.881Z,76.70
2022-11-04T12:33:37.863Z,77.00
2022-11-04T12:36:35.803Z,76.80
2022-11-04T12:39:30.138Z,76.50
2022-11-04T12:42:25.549Z,76.80
2022-11-04T12:45:07.475Z,76.20
2022-11-04T12:47:46.021Z,76.10
2022-11-04T12:50:24.759Z,76.10
2022-11-04T12:53:21.883Z,75.90
2022-11-04T12:55:57.424Z,75.90
2022-11-04T12:58:44.687Z,75.90
2022-11-04T13:01:23.678Z,75.70
2022-11-04T13:04:14.075Z,75.90
2022-11-04T13:06:54.574Z,77.00
2022-11-04T13:09:39.131Z,76.10
2022-11-04T13:12:25.294Z,76.20
2022-11-04T13:15:01.487Z,76.20
2022-11-04T13:17:39.087Z,76.40
2022-11-04T13:20:13.924Z,76.30
2022-11-04T13:22:49.605Z,76.10
2022-11-04T13:25:48.132Z,76.10
2022-11-04T13:28:22.034Z,76.10
2022-11-04T13:31:16.867Z,76.10
2022-11-04T13:33:52.047Z,75.90
2022-11-04T13:36:37.867Z,75.90
2022-11-04T13:39:12.081Z,75.90
2022-11-04T13:42:03.617Z,75.90
2022-11-04T13:44:36.197Z,75.80
2022-11-04T13:47:06.461Z,75.80
2022-11-04T13:49:37.078Z,75.80
2022-11-04T13:52:09.066Z,75.80
2022-11-04T13:54:50.456Z,75.90
2022-11-04T13:57:23.621Z,75.90
2022-11-04T14:00:15.432Z,75.90
2022-11-04T14:02:43.354Z,75.90
2022-11-04T14:05:32.204Z,76.20
2022-11-04T14:08:01.905Z,76.20
2022-11-04T14:10:49.409Z,76.30
2022-11-04T14:13:32.559Z,76.20
2022-11-04T14:16:13.784Z,76.40
2022-11-04T14:18:43.507Z,76.60
2022-11-04T14:21:13.280Z,76.50
2022-11-04T14:23:42.905Z,76.50
2022-11-04T14:26:19.247Z,76.60
2022-11-04T14:28:49.986Z,76.70
2022-11-04T14:31:38.066Z,76.80
2022-11-04T14:34:23.246Z,76.70
2022-11-04T14:37:02.309Z,76.70
2022-11-04T14:39:42.839Z,76.70
2022-11-04T14:42:14.405Z,76.60
2022-11-04T14:44:51.885Z,77.40
2022-11-04T14:47:26.820Z,76.50
2022-11-04T14:49:59.852Z,76.40
2022-11-04T14:52:49.256Z,75.80
2022-11-04T14:55:29.509Z,76.30
2022-11-04T14:58:27.111Z,76.30
2022-11-04T15:00:58.748Z,76.30
2022-11-04T15:04:09.076Z,76.30
2022-11-04T15:06:34.857Z,76.30
2022-11-04T15:09:39.579Z,76.30
2022-11-04T15:12:28.185Z,76.30
2022-11-04T15:14:56.285Z,76.50
2022-11-04T15:17:26.431Z,76.50
2022-11-04T15:19:56.544Z,76.40
2022-11-04T15:22:24.371Z,76.30
2022-11-04T15:24:51.331Z,76.30
2022-11-04T15:27:22.593Z,76.30
2022-11-04T15:29:58.495Z,76.30
2022-11-04T15:32:25.512Z,76.30
2022-11-04T15:34:53.967Z,76.30
2022-11-04T15:37:23.595Z,76.30
2022-11-04T15:39:52.911Z,77.30
2022-11-04T15:42:40.174Z,76.40
2022-11-04T15:45:22.666Z,76.40
2022-11-04T15:48:11.829Z,76.50
2022-11-04T15:50:38.813Z,77.50
2022-11-04T15:53:09.772Z,77.50
2022-11-04T15:55:38.004Z,76.90
2022-11-04T15:58:04.837Z,77.20
2022-11-04T16:00:31.875Z,77.20
2022-11-04T16:03:00.714Z,77.10
2022-11-04T16:05:31.227Z,77.10
2022-11-04T16:08:22.460Z,77.10
2022-11-04T16:10:50.464Z,77.10
2022-11-04T16:13:17.184Z,77.10
2022-11-04T16:15:48.266Z,77.00
2022-11-04T16:18:33.772Z,77.00
2022-11-04T16:21:13.092Z,77.00
2022-11-04T16:23:46.661Z,77.20
2022-11-04T16:26:13.710Z,77.60
2022-11-04T16:28:41.436Z,77.70
2022-11-04T16:31:23.758Z,77.80
2022-11-04T16:33:50.970Z,77.80
2022-11-04T16:36:24.591Z,77.70
2022-11-04T16:38:58.447Z,77.60
2022-11-04T16:41:27.867Z,77.60
2022-11-04T16:43:55.506Z,77.40
2022-11-04T16:46:22.490Z,77.40
2022-11-04T16:48:49.891Z,77.40
2022-11-04T16:51:23.852Z,77.50
2022-11-04T16:53:52.081Z,77.40
2022-11-04T16:56:21.889Z,77.40
2022-11-04T16:58:48.845Z,78.10
2022-11-04T17:01:15.874Z,77.20
2022-11-04T17:03:43.191Z,77.20
2022-11-04T17:06:14.609Z,77.20
2022-11-04T17:08:42.142Z,77.20
2022-11-04T17:11:10.278Z,77.20
2022-11-04T17:13:37.899Z,77.20
2022-11-04T17:16:05.339Z,77.20
2022-11-04T17:18:32.875Z,77.20
2022-11-04T17:21:04.990Z,77.60
2022-11-04T17:23:31.787Z,78.10
2022-11-04T17:25:58.486Z,78.20
2022-11-04T17:28:26.717Z,78.10
2022-11-04T17:30:53.685Z,78.10
2022-11-04T17:33:20.790Z,78.10
2022-11-04T17:35:49.797Z,78.20
2022-11-04T17:38:18.927Z,78.40
2022-11-04T17:41:04.598Z,78.30
2022-11-04T17:43:50.241Z,78.30
2022-11-04T17:46:36.523Z,78.30
2022-11-04T17:49:15.373Z,78.30
2022-11-04T17:51:44.859Z,78.50
2022-11-04T17:54:12.096Z,78.80
2022-11-04T17:56:40.440Z,79.00
2022-11-04T17:59:08.424Z,79.10
2022-11-04T18:01:36.696Z,79.10
2022-11-04T18:04:04.462Z,79.20
2022-11-04T18:06:32.022Z,79.30
2022-11-04T18:08:59.684Z,80.10
2022-11-04T18:11:46.157Z,79.50
2022-11-04T18:14:17.449Z,79.30
2022-11-04T18:16:47.101Z,79.40
2022-11-04T18:19:15.515Z,79.30
2022-11-04T18:21:42.151Z,79.10
2022-11-04T18:24:09.547Z,79.20
2022-11-04T18:26:36.698Z,79.00
2022-11-04T18:29:03.995Z,79.00
2022-11-04T18:31:33.131Z,79.00
2022-11-04T18:34:01.699Z,78.90
2022-11-04T18:36:29.961Z,78.90
2022-11-04T18:38:57.266Z,79.00
2022-11-04T18:41:23.921Z,78.90
2022-11-04T18:44:19.101Z,78.90
2022-11-04T18:46:50.462Z,79.00
2022-11-04T18:49:18.360Z,79.50
2022-11-04T18:51:47.521Z,79.70
2022-11-04T18:54:15.242Z,79.60
2022-11-04T18:56:42.478Z,79.70
2022-11-04T18:59:11.343Z,79.70
2022-11-04T19:01:40.979Z,79.80
2022-11-04T19:04:08.628Z,80.00
2022-11-04T19:06:42.460Z,80.50
2022-11-04T19:15:12.015Z,80.60
2022-11-04T19:17:41.456Z,80.50
2022-11-04T19:20:12.567Z,80.30
2022-11-04T19:22:40.933Z,80.20
2022-11-04T19:25:10.114Z,80.10
2022-11-04T19:27:37.447Z,80.00
2022-11-04T19:30:05.370Z,80.00
2022-11-04T19:32:32.568Z,80.10
2022-11-04T19:35:06.491Z,80.10
2022-11-04T19:37:33.838Z,80.10
2022-11-04T19:40:00.871Z,80.20
2022-11-04T19:42:49.858Z,80.20
2022-11-04T19:45:17.365Z,80.20
2022-11-04T19:47:47.357Z,80.10
2022-11-04T19:50:14.299Z,80.00
2022-11-04T19:52:44.195Z,80.10
2022-11-04T19:55:11.577Z,80.10
2022-11-04T19:57:40.960Z,80.10
2022-11-04T20:00:08.538Z,80.00
2022-11-04T20:02:47.250Z,79.90
2022-11-04T20:08:03.110Z,79.80
2022-11-04T20:10:39.404Z,79.80
2022-11-04T20:13:26.489Z,79.80
2022-11-04T20:15:58.606Z,79.80
2022-11-04T20:19:00.796Z,79.80
2022-11-04T20:21:32.326Z,79.90
2022-11-04T20:24:04.896Z,79.90
2022-11-04T20:34:40.016Z,79.90
2022-11-04T20:37:27.788Z,79.90
2022-11-04T20:40:08.160Z,79.70
2022-11-04T20:42:40.857Z,79.70
2022-11-04T20:45:14.911Z,79.70
2022-11-04T20:47:44.087Z,79.70
2022-11-04T20:50:10.974Z,79.70
2022-11-04T20:52:38.467Z,80.40
2022-11-04T20:55:06.407Z,79.50
2022-11-04T20:57:34.272Z,79.50
2022-11-04T21:00:05.053Z,79.50
2022-11-04T21:02:47.448Z,79.50
2022-11-04T21:09:57.798Z,79.70
2022-11-04T21:12:24.634Z,79.70
2022-11-04T21:14:51.484Z,79.60
2022-11-04T21:17:18.439Z,79.60
2022-11-04T21:19:45.630Z,79.50
2022-11-04T21:22:12.479Z,79.60
2022-11-04T21:24:39.640Z,79.60
2022-11-04T21:27:07.822Z,79.60
2022-11-04T21:29:34.761Z,79.70
2022-11-04T21:32:02.032Z,79.60
2022-11-04T21:34:28.989Z,79.60
2022-11-04T21:36:56.011Z,79.70
2022-11-04T21:39:23.983Z,79.80
2022-11-04T21:41:51.292Z,79.80
2022-11-04T21:44:19.992Z,79.90
2022-11-04T21:46:53.273Z,79.90
2022-11-04T21:49:20.763Z,79.90
2022-11-04T21:51:47.531Z,79.80
2022-11-04T21:54:14.444Z,79.90
2022-11-04T21:56:41.400Z,79.90
2022-11-04T21:59:16.994Z,79.90
2022-11-04T22:01:45.322Z,79.90
2022-11-04T22:04:12.215Z,80.00
2022-11-04T22:06:39.037Z,79.90
2022-11-04T22:09:07.980Z,80.00
2022-11-04T22:11:39.532Z,80.10
2022-11-04T22:14:08.638Z,80.00
2022-11-04T22:16:38.416Z,80.10
2022-11-04T22:19:07.639Z,80.20
2022-11-04T22:21:44.746Z,80.20
2022-11-04T22:24:18.115Z,80.30
2022-11-04T22:26:47.722Z,80.20
2022-11-04T22:29:14.770Z,80.20
2022-11-04T22:31:43.148Z,80.30
2022-11-04T22:34:10.179Z,80.30
2022-11-04T22:36:38.034Z,80.30
2022-11-04T22:39:05.765Z,80.40
2022-11-04T22:41:35.509Z,80.50
2022-11-04T22:44:03.319Z,80.40
2022-11-04T22:46:32.418Z,80.50
2022-11-04T22:49:02.259Z,80.50
2022-11-04T22:51:31.435Z,80.50
2022-11-04T22:54:04.534Z,80.40
2022-11-04T22:56:31.800Z,80.40
2022-11-04T22:59:00.222Z,80.50
2022-11-04T23:01:27.357Z,80.50
2022-11-04T23:03:54.555Z,80.50
2022-11-04T23:06:21.426Z,80.50
2022-11-04T23:08:48.215Z,80.60
2022-11-04T23:11:39.408Z,80.60
2022-11-04T23:14:24.730Z,80.70
2022-11-04T23:17:10.748Z,80.70
2022-11-04T23:19:38.752Z,80.70
2022-11-04T23:22:25.027Z,80.70
2022-11-04T23:25:05.500Z,80.70
2022-11-04T23:28:08.388Z,80.70
2022-11-04T23:30:43.060Z,81.00
2022-11-04T23:33:12.711Z,80.90
2022-11-04T23:36:01.484Z,80.90
2022-11-04T23:38:29.467Z,80.90
2022-11-04T23:41:19.988Z,81.00
2022-11-04T23:43:47.817Z,80.80
2022-11-04T23:46:41.048Z,80.80
2022-11-04T23:49:29.798Z,80.80
2022-11-04T23:52:15.455Z,80.80
2022-11-04T23:55:00.884Z,80.90
2022-11-04T23:57:46.193Z,81.00
